createdAt,value
2022-09-13T00:01:38.413Z,16
2022-09-13T00:06:50.920Z,15
2022-09-13T00:12:03.082Z,15
2022-09-13T00:17:15.115Z,15
2022-09-13T00:22:27.674Z,15
2022-09-13T00:27:39.732Z,14
2022-09-13T00:32:51.916Z,15
2022-09-13T00:38:04.264Z,15
2022-09-13T00:43:16.073Z,15
2022-09-13T00:48:28.052Z,16
2022-09-13T00:53:40.017Z,16
2022-09-13T00:58:52.005Z,15
2022-09-13T01:04:04.153Z,15
2022-09-13T01:09:16.634Z,15
2022-09-13T01:14:28.744Z,15
2022-09-13T01:19:40.863Z,14
2022-09-13T01:24:53.097Z,14
2022-09-13T01:30:05.311Z,14
2022-09-13T01:35:17.500Z,14
2022-09-13T01:40:29.784Z,14
2022-09-13T01:45:42.060Z,14
2022-09-13T01:50:54.800Z,14
2022-09-13T01:56:07.063Z,14
2022-09-13T02:01:19.630Z,14
2022-09-13T02:06:31.760Z,14
2022-09-13T02:11:43.913Z,14
2022-09-13T02:16:56.020Z,14
2022-09-13T02:22:08.080Z,14
2022-09-13T02:27:20.471Z,14
2022-09-13T02:32:32.399Z,14
2022-09-13T02:37:44.387Z,14
2022-09-13T02:42:56.675Z,14
2022-09-13T02:48:08.766Z,14
2022-09-13T02:53:20.678Z,13
2022-09-13T02:58:32.990Z,13
2022-09-13T03:03:45.116Z,14
2022-09-13T03:08:57.206Z,13
2022-09-13T03:14:09.617Z,13
2022-09-13T03:19:21.589Z,13
2022-09-13T03:24:33.408Z,13
2022-09-13T03:29:45.796Z,13
2022-09-13T03:34:57.907Z,13
2022-09-13T03:40:10.278Z,13
2022-09-13T03:45:22.590Z,13
2022-09-13T03:50:34.718Z,14
2022-09-13T03:55:46.698Z,13
2022-09-13T04:00:59.640Z,13
2022-09-13T04:06:11.417Z,13
2022-09-13T04:11:23.409Z,13
2022-09-13T04:16:35.780Z,13
2022-09-13T04:21:47.808Z,13
2022-09-13T04:27:00.008Z,13
2022-09-13T04:32:12.069Z,13
2022-09-13T04:37:23.997Z,13
2022-09-13T04:42:36.008Z,13
2022-09-13T04:47:48.196Z,13
2022-09-13T04:53:00.109Z,13
2022-09-13T04:58:12.297Z,13
2022-09-13T05:03:24.527Z,12
2022-09-13T05:08:36.498Z,12
2022-09-13T05:13:48.507Z,12
2022-09-13T05:19:00.922Z,12
2022-09-13T05:24:12.857Z,12
2022-09-13T05:29:24.997Z,12
2022-09-13T05:34:37.180Z,13
2022-09-13T05:40:13.475Z,12
2022-09-13T05:45:21.545Z,12
2022-09-13T05:50:59.420Z,12
2022-09-13T05:56:07.225Z,12
2022-09-13T06:01:19.607Z,12
2022-09-13T06:06:31.966Z,12
2022-09-13T06:11:43.987Z,12
2022-09-13T06:16:56.236Z,12
2022-09-13T06:22:08.644Z,12
2022-09-13T06:27:20.808Z,12
2022-09-13T06:32:32.983Z,12
2022-09-13T06:37:45.344Z,12
2022-09-13T06:42:57.435Z,12
2022-09-13T06:48:09.588Z,12
2022-09-13T06:53:22.134Z,12
2022-09-13T06:58:34.310Z,12
2022-09-13T07:03:46.477Z,12
2022-09-13T07:08:59.292Z,12
2022-09-13T07:14:11.516Z,12
2022-09-13T07:19:23.707Z,12
2022-09-13T07:24:35.963Z,13
2022-09-13T07:29:48.492Z,13
2022-09-13T07:35:00.897Z,13
2022-09-13T07:40:13.740Z,14
2022-09-13T07:45:25.897Z,14
2022-09-13T07:50:38.297Z,15
2022-09-13T07:55:50.855Z,15
2022-09-13T08:01:03.863Z,17
2022-09-13T08:06:16.285Z,17
2022-09-13T08:11:28.992Z,19
2022-09-13T08:16:41.206Z,20
2022-09-13T08:21:53.556Z,19
2022-09-13T08:27:05.920Z,20
2022-09-13T08:32:18.315Z,20
2022-09-13T08:37:30.671Z,18
2022-09-13T08:42:43.606Z,19
2022-09-13T08:47:55.927Z,19
2022-09-13T08:53:08.445Z,19
2022-09-13T08:58:21.095Z,21
2022-09-13T09:03:33.557Z,23
2022-09-13T09:08:45.836Z,22
2022-09-13T09:13:58.300Z,22
2022-09-13T09:19:10.557Z,23
2022-09-13T09:24:23.006Z,25
2022-09-13T09:29:36.124Z,25
2022-09-13T09:34:48.649Z,28
2022-09-13T09:40:01.639Z,28
2022-09-13T09:45:14.769Z,29
2022-09-13T09:50:27.323Z,30
2022-09-13T09:55:40.274Z,32
2022-09-13T10:00:53.115Z,33
2022-09-13T10:06:06.025Z,37
2022-09-13T10:11:18.680Z,36
2022-09-13T10:16:32.472Z,39
2022-09-13T10:21:45.273Z,38
2022-09-13T10:26:58.223Z,39
2022-09-13T10:32:11.480Z,77
2022-09-13T10:37:24.639Z,83
2022-09-13T10:42:37.212Z,85
2022-09-13T10:47:50.864Z,85
2022-09-13T10:53:03.648Z,83
2022-09-13T10:58:16.469Z,83
2022-09-13T11:03:29.928Z,80
2022-09-13T11:08:42.954Z,78
2022-09-13T11:13:57.636Z,80
2022-09-13T11:19:12.312Z,76
2022-09-13T11:24:29.115Z,61
2022-09-13T11:29:43.784Z,54
2022-09-13T11:45:24.040Z,55
2022-09-13T11:50:37.743Z,51
2022-09-13T11:55:51.353Z,52
2022-09-13T12:01:04.439Z,53
2022-09-13T12:06:16.915Z,52
2022-09-13T12:16:41.686Z,52
2022-09-13T12:27:04.682Z,53
2022-09-13T12:32:17.543Z,51
2022-09-13T12:42:42.085Z,51
2022-09-13T12:53:06.449Z,47
2022-09-13T13:08:41.914Z,52
2022-09-13T13:13:53.850Z,55
2022-09-13T13:29:47.847Z,63
2022-09-13T13:45:26.120Z,70
2022-09-13T13:50:41.990Z,72
2022-09-13T13:55:54.750Z,76
2022-09-13T14:01:07.689Z,75
2022-09-13T14:16:42.345Z,78
2022-09-13T14:32:16.857Z,79
2022-09-13T14:53:01.743Z,85
2022-09-13T14:58:14.431Z,85
2022-09-13T15:03:27.150Z,84
2022-09-13T15:19:00.260Z,85
2022-09-13T15:29:22.941Z,85
2022-09-13T15:34:35.557Z,85
2022-09-13T15:39:49.906Z,85
2022-09-13T15:50:12.776Z,85
2022-09-13T16:00:35.734Z,85
2022-09-13T16:05:48.224Z,86
2022-09-13T16:11:00.662Z,86
2022-09-13T16:21:23.543Z,88
2022-09-13T16:26:36.270Z,88
2022-09-13T16:31:49.218Z,89
2022-09-13T16:37:01.675Z,90
2022-09-13T16:42:14.184Z,90
2022-09-13T16:47:26.570Z,90
2022-09-13T16:52:39.201Z,90
2022-09-13T16:57:51.780Z,91
2022-09-13T17:08:14.751Z,91
2022-09-13T17:18:37.402Z,91
2022-09-13T17:23:50.375Z,90
2022-09-13T17:29:03.690Z,88
2022-09-13T17:34:16.160Z,85
2022-09-13T17:39:29.874Z,81
2022-09-13T17:44:43.611Z,78
2022-09-13T17:49:56.065Z,75
2022-09-13T17:55:08.463Z,73
2022-09-13T18:00:20.812Z,69
2022-09-13T18:05:33.343Z,66
2022-09-13T18:11:18.447Z,61
2022-09-13T18:16:30.489Z,57
2022-09-13T18:21:43.104Z,53
2022-09-13T18:26:56.144Z,50
2022-09-13T18:32:08.551Z,46
2022-09-13T18:37:21.181Z,45
2022-09-13T18:42:34.999Z,42
2022-09-13T18:47:47.192Z,39
2022-09-13T18:53:00.431Z,38
2022-09-13T18:58:15.281Z,36
2022-09-13T19:03:29.666Z,34
2022-09-13T19:08:47.479Z,28
2022-09-13T19:14:02.044Z,28
2022-09-13T19:19:15.609Z,27
2022-09-13T19:24:31.348Z,27
2022-09-13T19:29:45.585Z,27
2022-09-13T19:34:58.130Z,27
2022-09-13T19:40:11.057Z,26
2022-09-13T19:45:23.965Z,25
2022-09-13T19:50:36.192Z,24
2022-09-13T19:55:48.801Z,23
2022-09-13T20:01:01.504Z,22
2022-09-13T20:06:13.884Z,22
2022-09-13T20:11:26.381Z,21
2022-09-13T20:16:40.278Z,21
2022-09-13T20:21:53.282Z,21
2022-09-13T20:27:09.022Z,21
2022-09-13T20:32:24.254Z,21
2022-09-13T20:37:37.083Z,21
2022-09-13T20:42:50.022Z,20
2022-09-13T20:48:02.559Z,20
2022-09-13T20:53:15.272Z,20
2022-09-13T20:58:27.531Z,19
2022-09-13T21:03:41.622Z,19
2022-09-13T21:08:54.351Z,20
2022-09-13T21:14:06.602Z,19
2022-09-13T21:19:19.397Z,19
2022-09-13T21:24:31.921Z,19
2022-09-13T21:29:44.291Z,19
2022-09-13T21:35:01.125Z,18
2022-09-13T21:40:15.081Z,19
2022-09-13T21:45:27.312Z,19
2022-09-13T21:50:39.791Z,18
2022-09-13T21:55:51.935Z,18
2022-09-13T22:01:05.254Z,18
2022-09-13T22:06:17.479Z,19
2022-09-13T22:11:29.578Z,19
2022-09-13T22:16:42.268Z,19
2022-09-13T22:21:54.216Z,19
2022-09-13T22:27:06.438Z,18
2022-09-13T22:32:30.847Z,18
2022-09-13T22:37:40.698Z,18
2022-09-13T22:42:53.026Z,18
2022-09-13T22:48:12.529Z,18
2022-09-13T22:53:24.889Z,17
2022-09-13T22:58:37.020Z,17
2022-09-13T23:03:50.028Z,17
2022-09-13T23:09:02.230Z,17
2022-09-13T23:14:14.347Z,16
2022-09-13T23:19:26.658Z,16
2022-09-13T23:29:51.097Z,15
2022-09-13T23:35:03.187Z,16
2022-09-13T23:40:15.994Z,15
2022-09-13T23:45:28.231Z,14
2022-09-13T23:50:40.177Z,14
2022-09-13T23:55:52.326Z,14
